Terminal Aerodrome Forecast
Issued by NWS

Home | Current Version | Previous Version | Text Only | Print | Product List | Glossary On
Versions: 1 2 3 4 5 6 7 8 9 10 11 12 13 14 15 16 17
000
FTUS46 KSTO 262300
TAFMHR
TAF
KMHR 262338Z 2700/2724 33014KT P6SM SKC
     FM270200 33006KT P6SM SKC
     FM270300 VRB03KT P6SM SKC
     FM271200 VRB03KT 6SM BR SKC
     FM271700 15004KT P6SM SKC=

USA.gov is the U.S. government's official web portal to all federal, state and local government web resources and services.